createdAt,value
2024-05-09T00:02:58.059Z,5.88
2024-05-09T00:06:30.310Z,5.45
2024-05-09T00:10:04.137Z,5.63
2024-05-09T00:13:37.224Z,5.85
2024-05-09T00:17:09.365Z,10.32
2024-05-09T00:20:41.670Z,7.10
2024-05-09T00:24:13.531Z,9.35
2024-05-09T00:27:45.672Z,10.13
2024-05-09T00:31:17.475Z,6.53
2024-05-09T00:34:49.664Z,11.00
2024-05-09T00:38:21.495Z,7.45
2024-05-09T00:41:53.758Z,7.53
2024-05-09T00:45:25.513Z,9.53
2024-05-09T00:48:57.751Z,7.72
2024-05-09T00:52:30.307Z,10.30
2024-05-09T00:56:04.826Z,5.80
2024-05-09T00:59:37.041Z,6.50
2024-05-09T01:03:11.824Z,7.15
2024-05-09T01:06:45.769Z,9.57
2024-05-09T01:10:24.236Z,9.55
2024-05-09T01:14:04.015Z,13.30
2024-05-09T01:17:36.438Z,6.53
2024-05-09T01:21:09.604Z,9.23
2024-05-09T01:24:41.759Z,9.80
2024-05-09T01:28:13.656Z,8.73
2024-05-09T01:31:47.869Z,6.97
2024-05-09T01:35:23.809Z,7.68
2024-05-09T01:38:55.765Z,8.38
2024-05-09T01:42:27.933Z,7.83
2024-05-09T01:45:59.699Z,7.32
2024-05-09T01:49:36.334Z,10.82
2024-05-09T01:53:09.535Z,10.82
2024-05-09T01:56:42.037Z,9.43
2024-05-09T02:00:22.120Z,9.27
2024-05-09T02:04:02.107Z,9.05
2024-05-09T02:07:35.033Z,7.50
2024-05-09T02:11:08.812Z,13.57
2024-05-09T02:14:40.984Z,10.40
2024-05-09T02:18:13.541Z,9.20
2024-05-09T02:21:46.177Z,9.82
2024-05-09T02:25:20.569Z,8.43
2024-05-09T02:28:53.241Z,7.75
2024-05-09T02:32:25.600Z,10.60
2024-05-09T02:35:57.411Z,10.48
2024-05-09T02:39:29.570Z,8.60
2024-05-09T02:43:01.415Z,8.90
2024-05-09T02:46:35.379Z,11.50
2024-05-09T02:50:08.355Z,8.65
2024-05-09T02:53:40.200Z,9.17
2024-05-09T02:57:12.398Z,10.00
2024-05-09T03:00:44.170Z,12.55
2024-05-09T03:04:16.759Z,9.93
2024-05-09T03:07:48.525Z,9.43
2024-05-09T03:11:25.035Z,9.85
2024-05-09T03:14:57.627Z,9.00
2024-05-09T03:18:29.480Z,9.87
2024-05-09T03:22:01.773Z,8.38
2024-05-09T03:25:33.953Z,8.80
2024-05-09T03:29:06.375Z,10.03
2024-05-09T03:32:38.797Z,7.85
2024-05-09T03:36:11.375Z,8.45
2024-05-09T03:39:43.676Z,6.72
2024-05-09T03:43:15.815Z,8.00
2024-05-09T03:46:48.050Z,7.15
2024-05-09T03:50:29.468Z,10.73
2024-05-09T03:54:05.367Z,6.80
2024-05-09T03:57:37.479Z,9.55
2024-05-09T04:01:09.291Z,7.32
2024-05-09T04:04:42.186Z,8.43
2024-05-09T04:08:15.414Z,13.05
2024-05-09T04:11:48.039Z,12.32
2024-05-09T04:15:20.205Z,7.95
2024-05-09T04:18:52.079Z,8.33
2024-05-09T04:22:24.268Z,7.57
2024-05-09T04:25:56.152Z,8.45
2024-05-09T04:29:28.609Z,10.30
2024-05-09T04:33:00.537Z,8.38
2024-05-09T04:36:32.890Z,9.05
2024-05-09T04:40:06.991Z,9.05
2024-05-09T04:43:41.043Z,7.37
2024-05-09T04:47:13.352Z,8.38
2024-05-09T04:50:45.268Z,7.38
2024-05-09T04:54:29.539Z,7.50
2024-05-09T04:58:10.040Z,6.53
2024-05-09T05:01:41.790Z,9.15
2024-05-09T05:05:14.031Z,7.27
2024-05-09T05:08:45.947Z,9.20
2024-05-09T05:12:36.963Z,9.20
2024-05-09T05:16:09.924Z,7.10
2024-05-09T05:19:42.260Z,7.70
2024-05-09T05:23:16.085Z,8.40
2024-05-09T05:26:48.435Z,6.63
2024-05-09T05:30:25.264Z,6.38
2024-05-09T05:34:00.907Z,6.90
2024-05-09T05:37:33.092Z,5.13
2024-05-09T05:41:04.950Z,6.45
2024-05-09T05:44:37.492Z,6.50
2024-05-09T05:48:10.126Z,5.90
2024-05-09T05:51:42.413Z,5.20
2024-05-09T05:55:14.605Z,4.38
2024-05-09T05:58:46.475Z,5.27
2024-05-09T06:02:18.767Z,4.30
2024-05-09T06:05:50.704Z,4.88
2024-05-09T06:09:22.957Z,4.85
2024-05-09T06:12:54.708Z,6.03
2024-05-09T06:16:26.912Z,6.90
2024-05-09T06:19:59.118Z,5.35
2024-05-09T06:23:31.481Z,6.57
2024-05-09T06:27:04.109Z,5.10
2024-05-09T06:30:42.262Z,4.47
2024-05-09T06:34:18.792Z,4.70
2024-05-09T06:37:51.098Z,4.20
2024-05-09T06:41:22.874Z,3.87
2024-05-09T06:44:55.083Z,7.15
2024-05-09T06:48:27.338Z,6.07
2024-05-09T06:51:59.847Z,2.97
2024-05-09T06:55:31.638Z,6.50
2024-05-09T06:59:04.849Z,5.68
2024-05-09T07:02:37.066Z,5.50
2024-05-09T07:06:09.132Z,3.97
2024-05-09T07:09:41.363Z,3.97
2024-05-09T07:13:14.801Z,4.78
2024-05-09T07:16:47.511Z,5.63
2024-05-09T07:20:27.519Z,4.60
2024-05-09T07:24:05.832Z,6.80
2024-05-09T07:27:37.951Z,7.00
2024-05-09T07:31:10.806Z,4.82
2024-05-09T07:34:42.964Z,5.45
2024-05-09T07:38:14.902Z,5.60
2024-05-09T07:41:47.185Z,4.85
2024-05-09T07:53:32.524Z,4.40
2024-05-09T07:56:23.153Z,6.13
2024-05-09T07:59:56.369Z,5.00
2024-05-09T08:03:28.668Z,4.73
2024-05-09T08:07:01.031Z,4.57
2024-05-09T08:10:35.233Z,5.35
2024-05-09T08:14:07.489Z,5.13
2024-05-09T08:17:39.754Z,6.00
2024-05-09T08:21:11.571Z,6.20
2024-05-09T08:24:43.790Z,6.18
2024-05-09T08:28:16.392Z,5.80
2024-05-09T08:31:48.337Z,5.20
2024-05-09T08:35:20.774Z,8.40
2024-05-09T08:38:52.626Z,7.00
2024-05-09T08:42:26.778Z,4.68
2024-05-09T08:45:59.663Z,5.05
2024-05-09T08:49:31.983Z,4.17
2024-05-09T08:53:04.355Z,4.38
2024-05-09T08:56:39.311Z,6.05
2024-05-09T09:00:15.089Z,4.23
2024-05-09T09:03:53.496Z,5.53
2024-05-09T09:07:27.162Z,3.35
2024-05-09T09:10:59.396Z,9.65
2024-05-09T09:14:31.729Z,6.85
2024-05-09T09:18:04.350Z,9.63
2024-05-09T09:21:36.509Z,4.85
2024-05-09T09:25:08.740Z,3.53
2024-05-09T09:28:40.677Z,4.43
2024-05-09T09:32:12.829Z,5.07
2024-05-09T09:35:44.608Z,4.22
2024-05-09T09:39:18.527Z,3.85
2024-05-09T09:42:56.155Z,4.77
2024-05-09T09:46:29.264Z,6.17
2024-05-09T09:50:02.285Z,4.68
2024-05-09T09:53:35.026Z,5.10
2024-05-09T09:57:07.555Z,5.50
2024-05-09T10:00:39.830Z,3.20
2024-05-09T10:04:15.719Z,6.68
2024-05-09T10:07:48.386Z,5.85
2024-05-09T10:11:21.208Z,5.23
2024-05-09T10:14:54.532Z,4.90
2024-05-09T10:18:36.642Z,4.78
2024-05-09T10:22:09.179Z,6.28
2024-05-09T10:25:44.129Z,5.57
2024-05-09T10:29:18.052Z,4.73
2024-05-09T10:32:53.593Z,4.15
2024-05-09T10:36:26.431Z,7.05
2024-05-09T10:39:59.318Z,4.60
2024-05-09T10:43:31.253Z,5.77
2024-05-09T10:47:03.606Z,4.07
2024-05-09T10:50:36.004Z,4.28
2024-05-09T10:54:07.885Z,6.33
2024-05-09T10:57:40.969Z,6.37
2024-05-09T11:01:13.743Z,4.57
2024-05-09T11:04:46.018Z,3.92
2024-05-09T11:08:22.052Z,4.53
2024-05-09T11:11:54.508Z,4.70
2024-05-09T11:15:37.087Z,4.10
2024-05-09T11:19:13.188Z,3.35
2024-05-09T11:22:45.474Z,3.60
2024-05-09T11:26:19.564Z,3.47
2024-05-09T11:29:51.388Z,6.45
2024-05-09T11:33:23.558Z,6.05
2024-05-09T11:36:55.396Z,4.67
2024-05-09T11:40:32.404Z,4.17
2024-05-09T11:44:06.705Z,3.90
2024-05-09T11:47:39.896Z,4.22
2024-05-09T11:51:12.242Z,3.30
2024-05-09T11:54:44.435Z,3.63
2024-05-09T11:58:18.222Z,7.32
2024-05-09T12:01:50.717Z,4.38
2024-05-09T12:05:23.061Z,4.43
2024-05-09T12:08:55.886Z,5.07
2024-05-09T12:12:28.470Z,5.50
2024-05-09T12:16:01.007Z,4.45
2024-05-09T12:19:33.336Z,4.17
2024-05-09T12:23:05.755Z,6.70
2024-05-09T12:26:37.620Z,4.03
2024-05-09T12:30:14.169Z,5.18
2024-05-09T12:33:46.325Z,5.13
2024-05-09T12:37:19.191Z,4.70
2024-05-09T12:40:51.234Z,3.55
2024-05-09T12:44:23.466Z,5.85
2024-05-09T12:47:55.730Z,4.60
2024-05-09T12:51:27.534Z,4.60
2024-05-09T12:54:59.656Z,4.93
2024-05-09T12:58:34.183Z,4.28
2024-05-09T13:02:06.460Z,5.97
2024-05-09T13:05:41.359Z,4.75
2024-05-09T13:09:13.587Z,5.95
2024-05-09T13:12:45.783Z,5.80
2024-05-09T13:16:17.840Z,6.53
2024-05-09T13:19:50.062Z,5.03
2024-05-09T13:23:21.820Z,4.75
2024-05-09T13:26:53.976Z,4.40
2024-05-09T13:30:33.737Z,6.83
2024-05-09T13:34:11.040Z,5.05
2024-05-09T13:37:43.226Z,5.32
2024-05-09T13:41:15.603Z,4.80
2024-05-09T13:44:47.704Z,5.53
2024-05-09T13:48:19.895Z,5.85
2024-05-09T13:51:52.187Z,4.30
2024-05-09T13:55:24.147Z,4.47
2024-05-09T13:58:56.378Z,5.13
2024-05-09T14:02:28.832Z,4.25
2024-05-09T14:06:00.766Z,4.60
2024-05-09T14:09:32.984Z,5.30
2024-05-09T14:13:05.031Z,3.77
2024-05-09T14:16:39.078Z,7.60
2024-05-09T14:20:14.101Z,5.30
2024-05-09T14:23:48.670Z,5.50
2024-05-09T14:27:20.974Z,3.73
2024-05-09T14:30:53.295Z,4.35
2024-05-09T14:34:25.990Z,4.10
2024-05-09T14:37:58.777Z,3.63
2024-05-09T14:41:30.538Z,6.97
2024-05-09T14:45:02.694Z,8.77
2024-05-09T14:48:34.671Z,4.47
2024-05-09T14:52:07.205Z,5.40
2024-05-09T14:55:41.210Z,5.13
2024-05-09T14:59:17.402Z,6.78
2024-05-09T15:02:49.945Z,6.28
2024-05-09T15:06:21.832Z,4.20
2024-05-09T15:09:54.124Z,4.00
2024-05-09T15:13:26.050Z,4.22
2024-05-09T15:16:58.338Z,4.35
2024-05-09T15:20:34.856Z,5.57
2024-05-09T15:24:08.764Z,4.50
2024-05-09T15:27:40.526Z,7.22
2024-05-09T15:31:12.784Z,3.20
2024-05-09T15:34:46.196Z,4.57
2024-05-09T15:38:18.546Z,5.43
2024-05-09T15:41:53.148Z,3.83
2024-05-09T15:45:28.960Z,3.95
2024-05-09T15:49:01.665Z,4.77
2024-05-09T15:52:33.959Z,7.53
2024-05-09T15:56:06.416Z,5.13
2024-05-09T15:59:38.617Z,4.35
2024-05-09T16:03:12.328Z,5.17
2024-05-09T16:06:47.993Z,4.43
2024-05-09T16:10:25.839Z,4.28
2024-05-09T16:14:03.280Z,4.30
2024-05-09T16:17:35.609Z,5.60
2024-05-09T16:21:08.215Z,5.37
2024-05-09T16:24:40.503Z,4.07
2024-05-09T16:28:12.563Z,5.47
2024-05-09T16:31:44.731Z,4.17
2024-05-09T16:35:16.920Z,3.43
2024-05-09T16:38:48.703Z,4.95
2024-05-09T16:42:20.951Z,3.80
2024-05-09T16:45:52.733Z,5.93
2024-05-09T16:49:26.861Z,7.53
2024-05-09T16:52:58.888Z,4.28
2024-05-09T16:56:31.135Z,6.00
2024-05-09T17:00:07.289Z,3.90
2024-05-09T17:03:41.342Z,4.70
2024-05-09T17:07:13.751Z,3.63
2024-05-09T17:10:48.970Z,3.65
2024-05-09T17:14:21.777Z,4.38
2024-05-09T17:17:54.160Z,4.83
2024-05-09T17:21:26.045Z,3.90
2024-05-09T17:24:58.276Z,5.47
2024-05-09T17:28:30.234Z,6.57
2024-05-09T17:32:02.688Z,4.33
2024-05-09T17:35:35.725Z,6.35
2024-05-09T17:39:08.155Z,5.95
2024-05-09T17:42:40.366Z,4.85
2024-05-09T17:46:12.456Z,7.10
2024-05-09T17:49:44.643Z,11.18
2024-05-09T17:53:17.223Z,3.95
2024-05-09T17:56:50.841Z,6.18
2024-05-09T18:00:33.071Z,5.80
2024-05-09T18:04:10.915Z,3.95
2024-05-09T18:07:43.198Z,7.13
2024-05-09T18:11:15.098Z,3.65
2024-05-09T18:14:47.249Z,4.77
2024-05-09T18:18:19.273Z,3.15
2024-05-09T18:21:51.711Z,4.82
2024-05-09T18:25:23.599Z,3.00
2024-05-09T18:28:55.821Z,3.00
2024-05-09T18:32:28.030Z,5.53
2024-05-09T18:35:59.951Z,4.15
2024-05-09T18:39:32.097Z,5.57
2024-05-09T18:43:06.899Z,7.53
2024-05-09T18:46:40.350Z,6.63
2024-05-09T18:50:17.721Z,3.95
2024-05-09T18:53:57.327Z,12.43
2024-05-09T18:57:29.487Z,5.83
2024-05-09T19:01:02.071Z,6.22
2024-05-09T19:04:34.585Z,8.25
2024-05-09T19:08:07.445Z,23.73
2024-05-09T19:11:40.187Z,20.30
2024-05-09T19:15:12.357Z,23.77
2024-05-09T19:18:44.443Z,13.30
2024-05-09T19:22:16.735Z,26.30
2024-05-09T19:25:48.549Z,15.60
2024-05-09T19:29:20.728Z,15.45
2024-05-09T19:32:52.527Z,21.02
2024-05-09T19:36:25.716Z,15.05
2024-05-09T19:39:58.152Z,15.03
2024-05-09T19:43:32.267Z,11.80
2024-05-09T19:47:06.755Z,13.68
2024-05-09T19:50:43.125Z,9.87
2024-05-09T19:54:17.355Z,13.17
2024-05-09T19:57:49.561Z,24.85
2024-05-09T20:01:21.449Z,16.65
2024-05-09T20:04:53.732Z,14.90
2024-05-09T20:08:25.521Z,10.50
2024-05-09T20:11:57.723Z,18.33
2024-05-09T20:15:29.869Z,11.73
2024-05-09T20:19:02.460Z,12.70
2024-05-09T20:22:34.786Z,11.47
2024-05-09T20:26:08.099Z,6.63
2024-05-09T20:29:40.281Z,6.30
2024-05-09T20:33:14.153Z,12.73
2024-05-09T20:36:46.406Z,17.23
2024-05-09T20:40:25.597Z,17.60
2024-05-09T20:44:03.616Z,16.52
2024-05-09T20:47:37.607Z,22.53
2024-05-09T20:51:10.082Z,16.53
2024-05-09T20:54:42.296Z,11.77
2024-05-09T20:58:14.469Z,17.25
2024-05-09T21:01:49.278Z,17.27
2024-05-09T21:05:21.535Z,13.27
2024-05-09T21:08:53.786Z,14.45
2024-05-09T21:12:25.914Z,13.05
2024-05-09T21:15:57.821Z,9.43
2024-05-09T21:19:30.022Z,11.60
2024-05-09T21:23:02.463Z,8.50
2024-05-09T21:26:34.935Z,9.20
2024-05-09T21:30:12.912Z,8.53
2024-05-09T21:33:50.206Z,10.60
2024-05-09T21:37:22.469Z,12.68
2024-05-09T21:40:54.398Z,12.27
2024-05-09T21:44:26.731Z,15.68
2024-05-09T21:47:58.725Z,12.55
2024-05-09T21:51:31.954Z,13.40
2024-05-09T21:55:04.499Z,11.07
2024-05-09T21:58:36.244Z,12.40
2024-05-09T22:02:08.838Z,9.55
2024-05-09T22:05:43.628Z,11.03
2024-05-09T22:09:15.903Z,13.53
2024-05-09T22:12:48.061Z,11.48
2024-05-09T22:16:19.960Z,13.25
2024-05-09T22:19:52.981Z,10.00
2024-05-09T22:23:24.736Z,10.75
2024-05-09T22:26:56.847Z,9.15
2024-05-09T22:30:35.776Z,9.45
2024-05-09T22:34:11.245Z,10.10
2024-05-09T22:37:43.523Z,11.85
2024-05-09T22:41:15.262Z,10.77
2024-05-09T22:44:47.420Z,12.80
2024-05-09T22:48:19.554Z,10.55
2024-05-09T22:51:51.815Z,12.55
2024-05-09T22:55:23.978Z,13.68
2024-05-09T22:58:56.465Z,13.93
2024-05-09T23:02:28.607Z,12.25
2024-05-09T23:06:00.355Z,11.80
2024-05-09T23:09:32.684Z,15.17
2024-05-09T23:13:06.192Z,13.30
2024-05-09T23:16:38.693Z,14.85
2024-05-09T23:20:11.743Z,11.50
2024-05-09T23:23:46.251Z,13.83
2024-05-09T23:27:18.420Z,12.05
2024-05-09T23:30:50.223Z,12.77
2024-05-09T23:34:22.635Z,9.75
2024-05-09T23:37:54.526Z,10.47
2024-05-09T23:41:27.112Z,13.60
2024-05-09T23:45:02.301Z,10.85
2024-05-09T23:48:34.251Z,10.43
2024-05-09T23:52:06.655Z,16.60
2024-05-09T23:55:38.938Z,15.48
2024-05-09T23:59:11.455Z,11.85
